sensor_id;sensor_type;location;lat;lon;timestamp;pressure;altitude;pressure_sealevel;temperature;humidity
55517;BME280;41724;51.176;-0.708;2023-03-03T00:01:35;102222.62;;;7.53;49.20
55517;BME280;41724;51.176;-0.708;2023-03-03T00:04:02;102225.29;;;7.85;48.72
55517;BME280;41724;51.176;-0.708;2023-03-03T00:06:29;102225.32;;;7.97;48.75
55517;BME280;41724;51.176;-0.708;2023-03-03T00:08:56;102226.07;;;7.22;49.48
55517;BME280;41724;51.176;-0.708;2023-03-03T00:11:25;102225.69;;;7.18;49.78
55517;BME280;41724;51.176;-0.708;2023-03-03T00:13:53;102236.65;;;7.34;50.54
55517;BME280;41724;51.176;-0.708;2023-03-03T00:16:23;102235.83;;;7.56;50.06
55517;BME280;41724;51.176;-0.708;2023-03-03T00:18:52;102237.40;;;7.93;48.95
55517;BME280;41724;51.176;-0.708;2023-03-03T00:21:25;102234.74;;;7.66;49.54
55517;BME280;41724;51.176;-0.708;2023-03-03T00:23:52;102238.04;;;6.60;52.07
55517;BME280;41724;51.176;-0.708;2023-03-03T00:26:22;102235.54;;;6.57;52.70
55517;BME280;41724;51.176;-0.708;2023-03-03T00:28:51;102241.85;;;6.43;52.61
55517;BME280;41724;51.176;-0.708;2023-03-03T00:31:20;102238.77;;;6.79;52.31
55517;BME280;41724;51.176;-0.708;2023-03-03T00:33:53;102239.45;;;6.46;52.84
55517;BME280;41724;51.176;-0.708;2023-03-03T00:36:28;102243.63;;;5.57;54.71
55517;BME280;41724;51.176;-0.708;2023-03-03T00:38:59;102241.53;;;5.67;54.54
55517;BME280;41724;51.176;-0.708;2023-03-03T00:41:36;102244.92;;;6.21;53.82
55517;BME280;41724;51.176;-0.708;2023-03-03T00:44:30;102242.42;;;6.85;52.28
55517;BME280;41724;51.176;-0.708;2023-03-03T00:47:11;102243.25;;;6.61;52.25
55517;BME280;41724;51.176;-0.708;2023-03-03T00:49:40;102247.09;;;6.31;52.97
55517;BME280;41724;51.176;-0.708;2023-03-03T00:52:13;102247.46;;;6.24;52.93
55517;BME280;41724;51.176;-0.708;2023-03-03T00:54:42;102247.37;;;6.43;52.65
55517;BME280;41724;51.176;-0.708;2023-03-03T00:57:10;102245.43;;;6.90;51.88
55517;BME280;41724;51.176;-0.708;2023-03-03T00:59:37;102243.86;;;7.13;51.13
55517;BME280;41724;51.176;-0.708;2023-03-03T01:02:05;102246.98;;;7.21;50.63
55517;BME280;41724;51.176;-0.708;2023-03-03T01:04:33;102247.51;;;6.48;52.09
55517;BME280;41724;51.176;-0.708;2023-03-03T01:07:00;102245.81;;;6.82;51.93
55517;BME280;41724;51.176;-0.708;2023-03-03T01:09:28;102249.19;;;6.65;52.80
55517;BME280;41724;51.176;-0.708;2023-03-03T01:11:55;102247.32;;;6.92;51.26
55517;BME280;41724;51.176;-0.708;2023-03-03T01:14:22;102248.45;;;6.22;52.37
55517;BME280;41724;51.176;-0.708;2023-03-03T01:16:49;102247.96;;;7.09;52.32
55517;BME280;41724;51.176;-0.708;2023-03-03T01:19:16;102251.28;;;6.12;52.70
55517;BME280;41724;51.176;-0.708;2023-03-03T01:21:43;102254.88;;;6.85;52.54
55517;BME280;41724;51.176;-0.708;2023-03-03T01:24:11;102259.14;;;6.78;52.34
55517;BME280;41724;51.176;-0.708;2023-03-03T01:26:38;102259.51;;;7.13;51.88
55517;BME280;41724;51.176;-0.708;2023-03-03T01:29:06;102257.01;;;6.70;52.49
55517;BME280;41724;51.176;-0.708;2023-03-03T01:31:33;102252.94;;;6.47;52.41
55517;BME280;41724;51.176;-0.708;2023-03-03T01:34:00;102252.97;;;6.81;52.49
55517;BME280;41724;51.176;-0.708;2023-03-03T01:36:28;102259.15;;;6.55;52.35
55517;BME280;41724;51.176;-0.708;2023-03-03T01:38:55;102258.66;;;4.87;55.79
55517;BME280;41724;51.176;-0.708;2023-03-03T01:41:26;102260.73;;;6.14;54.06
55517;BME280;41724;51.176;-0.708;2023-03-03T01:43:53;102262.01;;;6.62;52.99
55517;BME280;41724;51.176;-0.708;2023-03-03T01:46:55;102264.07;;;6.53;52.74
55517;BME280;41724;51.176;-0.708;2023-03-03T01:49:28;102270.99;;;5.85;54.48
55517;BME280;41724;51.176;-0.708;2023-03-03T01:51:58;102270.43;;;6.37;53.24
55517;BME280;41724;51.176;-0.708;2023-03-03T01:54:29;102268.06;;;6.98;52.12
55517;BME280;41724;51.176;-0.708;2023-03-03T01:57:05;102268.71;;;7.39;51.34
55517;BME280;41724;51.176;-0.708;2023-03-03T01:59:41;102271.38;;;6.95;50.71
55517;BME280;41724;51.176;-0.708;2023-03-03T02:02:11;102273.17;;;7.33;51.97
55517;BME280;41724;51.176;-0.708;2023-03-03T02:04:38;102270.33;;;7.81;51.04
55517;BME280;41724;51.176;-0.708;2023-03-03T02:07:07;102270.61;;;7.81;50.35
55517;BME280;41724;51.176;-0.708;2023-03-03T02:09:43;102264.84;;;7.27;50.38
55517;BME280;41724;51.176;-0.708;2023-03-03T02:12:17;102265.14;;;7.33;49.97
55517;BME280;41724;51.176;-0.708;2023-03-03T02:14:45;102264.33;;;6.97;51.52
55517;BME280;41724;51.176;-0.708;2023-03-03T02:17:14;102262.09;;;7.14;51.57
55517;BME280;41724;51.176;-0.708;2023-03-03T02:19:48;102265.73;;;7.52;50.12
55517;BME280;41724;51.176;-0.708;2023-03-03T02:22:26;102262.77;;;7.70;49.03
55517;BME280;41724;51.176;-0.708;2023-03-03T02:25:01;102262.14;;;7.62;48.71
55517;BME280;41724;51.176;-0.708;2023-03-03T02:27:30;102259.96;;;6.98;49.90
55517;BME280;41724;51.176;-0.708;2023-03-03T02:30:09;102269.61;;;7.09;51.15
55517;BME280;41724;51.176;-0.708;2023-03-03T02:32:36;102270.95;;;7.27;49.90
55517;BME280;41724;51.176;-0.708;2023-03-03T02:35:30;102271.60;;;7.10;49.76
55517;BME280;41724;51.176;-0.708;2023-03-03T02:38:06;102272.86;;;7.87;49.88
55517;BME280;41724;51.176;-0.708;2023-03-03T02:40:42;102276.22;;;7.78;48.36
55517;BME280;41724;51.176;-0.708;2023-03-03T02:43:13;102269.62;;;8.08;48.21
55517;BME280;41724;51.176;-0.708;2023-03-03T02:45:43;102273.43;;;7.68;48.39
55517;BME280;41724;51.176;-0.708;2023-03-03T02:48:11;102273.82;;;7.17;49.17
55517;BME280;41724;51.176;-0.708;2023-03-03T02:50:38;102278.74;;;7.60;47.67
55517;BME280;41724;51.176;-0.708;2023-03-03T02:53:05;102277.61;;;7.99;47.53
55517;BME280;41724;51.176;-0.708;2023-03-03T02:55:32;102270.31;;;8.47;46.74
55517;BME280;41724;51.176;-0.708;2023-03-03T02:57:59;102272.85;;;8.23;46.70
55517;BME280;41724;51.176;-0.708;2023-03-03T03:00:26;102272.16;;;8.27;46.34
55517;BME280;41724;51.176;-0.708;2023-03-03T03:02:54;102271.83;;;8.55;46.35
55517;BME280;41724;51.176;-0.708;2023-03-03T03:05:21;102270.45;;;8.24;45.65
55517;BME280;41724;51.176;-0.708;2023-03-03T03:07:48;102273.40;;;8.78;45.09
55517;BME280;41724;51.176;-0.708;2023-03-03T03:10:15;102274.93;;;8.29;44.48
55517;BME280;41724;51.176;-0.708;2023-03-03T03:12:42;102279.04;;;8.27;45.05
55517;BME280;41724;51.176;-0.708;2023-03-03T03:15:10;102278.34;;;8.06;45.79
55517;BME280;41724;51.176;-0.708;2023-03-03T03:17:37;102280.17;;;8.57;45.26
55517;BME280;41724;51.176;-0.708;2023-03-03T03:20:05;102278.39;;;8.36;45.32
55517;BME280;41724;51.176;-0.708;2023-03-03T03:22:33;102279.93;;;8.42;45.17
55517;BME280;41724;51.176;-0.708;2023-03-03T03:25:00;102281.45;;;8.32;45.30
55517;BME280;41724;51.176;-0.708;2023-03-03T03:27:27;102278.82;;;8.89;45.05
55517;BME280;41724;51.176;-0.708;2023-03-03T03:29:55;102278.70;;;8.55;45.25
55517;BME280;41724;51.176;-0.708;2023-03-03T03:32:21;102274.35;;;8.51;45.57
55517;BME280;41724;51.176;-0.708;2023-03-03T03:34:49;102275.63;;;8.29;44.63
55517;BME280;41724;51.176;-0.708;2023-03-03T03:37:16;102282.62;;;8.55;44.72
55517;BME280;41724;51.176;-0.708;2023-03-03T03:39:43;102284.42;;;8.49;44.63
55517;BME280;41724;51.176;-0.708;2023-03-03T03:42:10;102285.29;;;8.36;44.83
55517;BME280;41724;51.176;-0.708;2023-03-03T03:44:37;102284.45;;;8.64;44.44
55517;BME280;41724;51.176;-0.708;2023-03-03T03:47:04;102286.39;;;9.03;44.78
55517;BME280;41724;51.176;-0.708;2023-03-03T03:49:31;102287.52;;;8.84;44.24
55517;BME280;41724;51.176;-0.708;2023-03-03T03:51:59;102286.82;;;8.78;43.92
55517;BME280;41724;51.176;-0.708;2023-03-03T03:54:26;102285.36;;;8.74;43.95
55517;BME280;41724;51.176;-0.708;2023-03-03T03:56:53;102287.45;;;8.63;44.75
55517;BME280;41724;51.176;-0.708;2023-03-03T03:59:21;102284.04;;;8.23;45.27
55517;BME280;41724;51.176;-0.708;2023-03-03T04:01:48;102287.19;;;9.04;45.11
55517;BME280;41724;51.176;-0.708;2023-03-03T04:04:15;102280.11;;;9.04;44.07
55517;BME280;41724;51.176;-0.708;2023-03-03T04:06:42;102283.53;;;8.93;43.20
55517;BME280;41724;51.176;-0.708;2023-03-03T04:09:10;102290.07;;;8.91;44.37
55517;BME280;41724;51.176;-0.708;2023-03-03T04:11:37;102290.10;;;8.68;44.04
55517;BME280;41724;51.176;-0.708;2023-03-03T04:14:04;102285.35;;;8.96;43.69
55517;BME280;41724;51.176;-0.708;2023-03-03T04:16:31;102288.35;;;8.95;43.56
55517;BME280;41724;51.176;-0.708;2023-03-03T04:18:59;102282.55;;;8.94;43.75
55517;BME280;41724;51.176;-0.708;2023-03-03T04:21:27;102285.62;;;8.55;44.21
55517;BME280;41724;51.176;-0.708;2023-03-03T04:23:54;102282.69;;;8.72;44.97
55517;BME280;41724;51.176;-0.708;2023-03-03T04:26:22;102282.17;;;8.66;44.82
55517;BME280;41724;51.176;-0.708;2023-03-03T04:28:49;102284.25;;;8.57;45.08
55517;BME280;41724;51.176;-0.708;2023-03-03T04:31:16;102285.29;;;8.11;45.18
55517;BME280;41724;51.176;-0.708;2023-03-03T04:33:43;102279.32;;;8.30;44.81
55517;BME280;41724;51.176;-0.708;2023-03-03T04:36:11;102276.82;;;8.50;44.80
55517;BME280;41724;51.176;-0.708;2023-03-03T04:38:38;102273.49;;;8.15;44.30
55517;BME280;41724;51.176;-0.708;2023-03-03T04:41:05;102273.00;;;8.42;44.02
55517;BME280;41724;51.176;-0.708;2023-03-03T04:43:32;102271.89;;;8.45;44.80
55517;BME280;41724;51.176;-0.708;2023-03-03T04:46:00;102278.43;;;8.19;45.65
55517;BME280;41724;51.176;-0.708;2023-03-03T04:48:28;102273.91;;;8.28;44.70
55517;BME280;41724;51.176;-0.708;2023-03-03T04:50:55;102273.04;;;8.66;44.85
55517;BME280;41724;51.176;-0.708;2023-03-03T04:53:23;102272.00;;;8.82;44.62
55517;BME280;41724;51.176;-0.708;2023-03-03T04:55:50;102266.66;;;8.53;44.21
55517;BME280;41724;51.176;-0.708;2023-03-03T04:58:17;102275.61;;;8.33;44.85
55517;BME280;41724;51.176;-0.708;2023-03-03T05:00:45;102281.70;;;8.57;44.46
55517;BME280;41724;51.176;-0.708;2023-03-03T05:03:12;102276.44;;;8.20;44.90
55517;BME280;41724;51.176;-0.708;2023-03-03T05:05:39;102279.08;;;8.85;44.57
55517;BME280;41724;51.176;-0.708;2023-03-03T05:08:06;102277.22;;;8.58;44.38
55517;BME280;41724;51.176;-0.708;2023-03-03T05:10:34;102273.63;;;8.69;44.82
55517;BME280;41724;51.176;-0.708;2023-03-03T05:13:01;102274.17;;;8.35;45.33
55517;BME280;41724;51.176;-0.708;2023-03-03T05:15:28;102280.47;;;7.95;46.17
55517;BME280;41724;51.176;-0.708;2023-03-03T05:17:55;102279.46;;;7.93;46.08
55517;BME280;41724;51.176;-0.708;2023-03-03T05:20:23;102280.63;;;8.26;45.68
55517;BME280;41724;51.176;-0.708;2023-03-03T05:22:51;102276.28;;;8.27;45.12
55517;BME280;41724;51.176;-0.708;2023-03-03T05:25:18;102281.59;;;7.25;47.18
55517;BME280;41724;51.176;-0.708;2023-03-03T05:27:45;102278.51;;;7.75;46.50
55517;BME280;41724;51.176;-0.708;2023-03-03T05:30:13;102282.92;;;7.68;47.26
55517;BME280;41724;51.176;-0.708;2023-03-03T05:32:40;102280.17;;;7.89;47.14
55517;BME280;41724;51.176;-0.708;2023-03-03T05:35:07;102277.61;;;7.75;46.84
55517;BME280;41724;51.176;-0.708;2023-03-03T05:37:35;102282.97;;;7.58;46.73
55517;BME280;41724;51.176;-0.708;2023-03-03T05:40:02;102277.57;;;7.40;47.91
55517;BME280;41724;51.176;-0.708;2023-03-03T05:42:29;102279.06;;;7.21;47.26
55517;BME280;41724;51.176;-0.708;2023-03-03T05:44:56;102278.34;;;7.09;47.53
55517;BME280;41724;51.176;-0.708;2023-03-03T05:47:23;102272.64;;;7.35;48.03
55517;BME280;41724;51.176;-0.708;2023-03-03T05:49:50;102273.80;;;6.86;49.07
55517;BME280;41724;51.176;-0.708;2023-03-03T05:52:17;102277.14;;;6.79;50.02
55517;BME280;41724;51.176;-0.708;2023-03-03T05:54:45;102279.14;;;6.34;50.33
55517;BME280;41724;51.176;-0.708;2023-03-03T05:57:12;102278.11;;;7.28;48.55
55517;BME280;41724;51.176;-0.708;2023-03-03T05:59:39;102278.94;;;7.22;48.90
55517;BME280;41724;51.176;-0.708;2023-03-03T06:02:07;102278.24;;;6.89;49.20
55517;BME280;41724;51.176;-0.708;2023-03-03T06:04:35;102276.33;;;6.62;48.59
55517;BME280;41724;51.176;-0.708;2023-03-03T06:07:02;102277.05;;;6.86;48.28
55517;BME280;41724;51.176;-0.708;2023-03-03T06:09:29;102278.83;;;7.48;47.46
55517;BME280;41724;51.176;-0.708;2023-03-03T06:11:55;102274.79;;;7.08;47.95
55517;BME280;41724;51.176;-0.708;2023-03-03T06:14:23;102276.96;;;7.27;47.60
55517;BME280;41724;51.176;-0.708;2023-03-03T06:16:50;102278.45;;;7.22;47.40
55517;BME280;41724;51.176;-0.708;2023-03-03T06:19:17;102278.82;;;7.15;47.45
55517;BME280;41724;51.176;-0.708;2023-03-03T06:21:44;102283.71;;;7.07;47.42
55517;BME280;41724;51.176;-0.708;2023-03-03T06:24:11;102283.26;;;7.41;46.97
55517;BME280;41724;51.176;-0.708;2023-03-03T06:26:38;102285.35;;;7.62;47.22
55517;BME280;41724;51.176;-0.708;2023-03-03T06:29:06;102286.23;;;7.77;46.81
55517;BME280;41724;51.176;-0.708;2023-03-03T06:31:33;102286.59;;;7.83;46.66
55517;BME280;41724;51.176;-0.708;2023-03-03T06:34:00;102288.83;;;7.80;46.87
55517;BME280;41724;51.176;-0.708;2023-03-03T06:36:27;102290.28;;;7.95;47.11
55517;BME280;41724;51.176;-0.708;2023-03-03T06:38:54;102291.43;;;7.46;47.04
55517;BME280;41724;51.176;-0.708;2023-03-03T06:41:22;102295.28;;;7.63;47.49
55517;BME280;41724;51.176;-0.708;2023-03-03T06:43:51;102299.91;;;7.89;47.32
55517;BME280;41724;51.176;-0.708;2023-03-03T06:46:19;102296.38;;;7.87;47.23
55517;BME280;41724;51.176;-0.708;2023-03-03T06:48:46;102296.24;;;7.94;47.05
55517;BME280;41724;51.176;-0.708;2023-03-03T06:51:22;102300.48;;;8.03;46.58
55517;BME280;41724;51.176;-0.708;2023-03-03T06:53:54;102301.40;;;8.21;46.27
55517;BME280;41724;51.176;-0.708;2023-03-03T06:56:24;102307.47;;;7.64;46.85
55517;BME280;41724;51.176;-0.708;2023-03-03T06:58:53;102310.02;;;7.83;46.57
55517;BME280;41724;51.176;-0.708;2023-03-03T07:01:22;102313.14;;;8.17;46.46
55517;BME280;41724;51.176;-0.708;2023-03-03T07:03:49;102317.80;;;8.58;46.14
55517;BME280;41724;51.176;-0.708;2023-03-03T07:06:23;102314.68;;;8.38;45.92
55517;BME280;41724;51.176;-0.708;2023-03-03T07:08:51;102318.25;;;8.69;45.80
55517;BME280;41724;51.176;-0.708;2023-03-03T07:11:20;102321.61;;;8.60;45.70
55517;BME280;41724;51.176;-0.708;2023-03-03T07:13:49;102323.98;;;8.27;45.60
55517;BME280;41724;51.176;-0.708;2023-03-03T07:16:19;102327.41;;;8.06;46.19
55517;BME280;41724;51.176;-0.708;2023-03-03T07:18:51;102333.44;;;8.16;46.52
55517;BME280;41724;51.176;-0.708;2023-03-03T07:21:21;102330.81;;;8.38;45.18
55517;BME280;41724;51.176;-0.708;2023-03-03T07:23:50;102336.67;;;8.54;45.06
55517;BME280;41724;51.176;-0.708;2023-03-03T07:26:20;102341.93;;;8.57;45.60
55517;BME280;41724;51.176;-0.708;2023-03-03T07:28:53;102340.17;;;8.53;45.57
55517;BME280;41724;51.176;-0.708;2023-03-03T07:31:27;102341.50;;;7.97;45.22
55517;BME280;41724;51.176;-0.708;2023-03-03T07:33:56;102342.61;;;8.50;44.89
55517;BME280;41724;51.176;-0.708;2023-03-03T07:36:28;102346.84;;;7.58;44.81
55517;BME280;41724;51.176;-0.708;2023-03-03T07:38:58;102350.50;;;8.08;45.13
55517;BME280;41724;51.176;-0.708;2023-03-03T07:41:27;102352.37;;;8.37;44.94
55517;BME280;41724;51.176;-0.708;2023-03-03T07:43:57;102352.84;;;7.86;45.24
55517;BME280;41724;51.176;-0.708;2023-03-03T07:46:29;102357.21;;;7.97;45.34
55517;BME280;41724;51.176;-0.708;2023-03-03T07:48:57;102359.72;;;8.11;44.95
55517;BME280;41724;51.176;-0.708;2023-03-03T07:51:27;102363.68;;;8.25;45.09
55517;BME280;41724;51.176;-0.708;2023-03-03T07:54:11;102365.38;;;8.28;44.52
55517;BME280;41724;51.176;-0.708;2023-03-03T07:56:40;102363.63;;;8.20;44.72
55517;BME280;41724;51.176;-0.708;2023-03-03T07:59:17;102367.63;;;8.24;45.30
55517;BME280;41724;51.176;-0.708;2023-03-03T08:01:51;102366.69;;;8.43;44.91
55517;BME280;41724;51.176;-0.708;2023-03-03T08:04:23;102370.07;;;9.29;43.18
55517;BME280;41724;51.176;-0.708;2023-03-03T08:06:52;102375.33;;;8.93;42.56
55517;BME280;41724;51.176;-0.708;2023-03-03T08:09:30;102377.48;;;8.90;42.54
55517;BME280;41724;51.176;-0.708;2023-03-03T08:12:17;102384.20;;;8.51;43.89
55517;BME280;41724;51.176;-0.708;2023-03-03T08:14:45;102385.91;;;7.71;44.99
55517;BME280;41724;51.176;-0.708;2023-03-03T08:17:16;102383.54;;;8.48;44.86
55517;BME280;41724;51.176;-0.708;2023-03-03T08:19:45;102383.85;;;8.77;44.86
55517;BME280;41724;51.176;-0.708;2023-03-03T08:22:15;102386.72;;;8.28;44.36
55517;BME280;41724;51.176;-0.708;2023-03-03T08:24:43;102386.37;;;8.76;43.36
55517;BME280;41724;51.176;-0.708;2023-03-03T08:27:10;102388.71;;;8.64;43.03
55517;BME280;41724;51.176;-0.708;2023-03-03T08:29:37;102390.02;;;8.39;42.43
55517;BME280;41724;51.176;-0.708;2023-03-03T08:32:04;102389.85;;;9.17;42.76
55517;BME280;41724;51.176;-0.708;2023-03-03T08:34:32;102394.34;;;8.51;43.47
55517;BME280;41724;51.176;-0.708;2023-03-03T08:36:59;102397.13;;;8.77;43.09
55517;BME280;41724;51.176;-0.708;2023-03-03T08:39:26;102395.56;;;9.05;43.59
55517;BME280;41724;51.176;-0.708;2023-03-03T08:41:53;102401.77;;;8.92;42.79
55517;BME280;41724;51.176;-0.708;2023-03-03T08:44:21;102398.35;;;9.33;42.82
55517;BME280;41724;51.176;-0.708;2023-03-03T08:46:48;102398.25;;;8.89;42.68
55517;BME280;41724;51.176;-0.708;2023-03-03T08:49:15;102401.68;;;9.18;42.13
55517;BME280;41724;51.176;-0.708;2023-03-03T08:51:42;102401.48;;;9.14;42.14
55517;BME280;41724;51.176;-0.708;2023-03-03T08:54:10;102400.38;;;8.86;41.96
55517;BME280;41724;51.176;-0.708;2023-03-03T08:56:38;102405.27;;;9.08;42.60
55517;BME280;41724;51.176;-0.708;2023-03-03T08:59:05;102400.76;;;8.83;42.83
55517;BME280;41724;51.176;-0.708;2023-03-03T09:01:34;102400.87;;;8.78;43.32
55517;BME280;41724;51.176;-0.708;2023-03-03T09:04:01;102397.16;;;8.20;43.73
55517;BME280;41724;51.176;-0.708;2023-03-03T09:06:28;102401.44;;;8.95;42.26
55517;BME280;41724;51.176;-0.708;2023-03-03T09:08:55;102398.75;;;8.98;43.10
55517;BME280;41724;51.176;-0.708;2023-03-03T09:11:25;102402.54;;;8.64;43.39
55517;BME280;41724;51.176;-0.708;2023-03-03T09:13:58;102406.70;;;8.38;43.62
55517;BME280;41724;51.176;-0.708;2023-03-03T09:16:29;102403.30;;;8.24;44.51
55517;BME280;41724;51.176;-0.708;2023-03-03T09:19:17;102409.56;;;9.01;44.62
55517;BME280;41724;51.176;-0.708;2023-03-03T09:21:45;102408.22;;;8.38;43.92
55517;BME280;41724;51.176;-0.708;2023-03-03T09:24:23;102408.01;;;9.24;43.05
55517;BME280;41724;51.176;-0.708;2023-03-03T09:26:50;102410.56;;;9.17;42.61
55517;BME280;41724;51.176;-0.708;2023-03-03T09:29:25;102413.12;;;8.86;42.99
55517;BME280;41724;51.176;-0.708;2023-03-03T09:31:53;102414.51;;;9.09;43.23
55517;BME280;41724;51.176;-0.708;2023-03-03T09:34:23;102413.95;;;9.52;42.57
55517;BME280;41724;51.176;-0.708;2023-03-03T09:36:52;102413.34;;;10.01;42.57
55517;BME280;41724;51.176;-0.708;2023-03-03T09:39:22;102413.45;;;9.85;42.68
55517;BME280;41724;51.176;-0.708;2023-03-03T09:42:19;102418.47;;;9.08;41.91
55517;BME280;41724;51.176;-0.708;2023-03-03T09:45:08;102421.59;;;8.16;44.92
55517;BME280;41724;51.176;-0.708;2023-03-03T09:47:46;102425.19;;;8.82;44.44
55517;BME280;41724;51.176;-0.708;2023-03-03T09:50:29;102423.59;;;9.02;43.54
55517;BME280;41724;51.176;-0.708;2023-03-03T09:53:12;102423.18;;;8.31;44.52
55517;BME280;41724;51.176;-0.708;2023-03-03T09:55:52;102429.59;;;8.81;43.79
55517;BME280;41724;51.176;-0.708;2023-03-03T09:58:30;102430.91;;;9.12;44.07
55517;BME280;41724;51.176;-0.708;2023-03-03T10:01:14;102430.05;;;9.27;42.97
55517;BME280;41724;51.176;-0.708;2023-03-03T10:04:01;102432.90;;;8.88;42.32
55517;BME280;41724;51.176;-0.708;2023-03-03T10:06:35;102442.86;;;8.96;44.47
55517;BME280;41724;51.176;-0.708;2023-03-03T10:09:27;102441.47;;;8.66;43.82
55517;BME280;41724;51.176;-0.708;2023-03-03T10:12:04;102440.56;;;8.78;43.62
55517;BME280;41724;51.176;-0.708;2023-03-03T10:14:51;102439.02;;;9.08;44.11
55517;BME280;41724;51.176;-0.708;2023-03-03T10:17:32;102432.23;;;9.63;43.79
55517;BME280;41724;51.176;-0.708;2023-03-03T10:20:15;102428.70;;;9.78;42.49
55517;BME280;41724;51.176;-0.708;2023-03-03T10:22:52;102432.69;;;10.49;41.76
55517;BME280;41724;51.176;-0.708;2023-03-03T10:25:30;102430.58;;;10.83;40.68
55517;BME280;41724;51.176;-0.708;2023-03-03T10:28:39;102433.64;;;10.67;39.81
55517;BME280;41724;51.176;-0.708;2023-03-03T10:31:15;102430.08;;;10.56;39.70
55517;BME280;41724;51.176;-0.708;2023-03-03T10:33:50;102430.84;;;10.85;38.32
55517;BME280;41724;51.176;-0.708;2023-03-03T10:36:33;102430.95;;;11.24;37.98
55517;BME280;41724;51.176;-0.708;2023-03-03T10:39:19;102430.79;;;10.78;37.77
55517;BME280;41724;51.176;-0.708;2023-03-03T10:42:04;102429.00;;;11.37;38.30
55517;BME280;41724;51.176;-0.708;2023-03-03T10:44:47;102431.24;;;11.15;38.97
55517;BME280;41724;51.176;-0.708;2023-03-03T10:47:48;102433.79;;;11.28;37.54
55517;BME280;41724;51.176;-0.708;2023-03-03T10:50:29;102434.95;;;11.65;38.09
55517;BME280;41724;51.176;-0.708;2023-03-03T10:53:14;102435.29;;;11.30;38.13
55517;BME280;41724;51.176;-0.708;2023-03-03T10:55:53;102435.23;;;11.17;38.04
55517;BME280;41724;51.176;-0.708;2023-03-03T10:58:33;102440.01;;;10.55;39.38
55517;BME280;41724;51.176;-0.708;2023-03-03T11:01:12;102442.32;;;10.07;39.95
55517;BME280;41724;51.176;-0.708;2023-03-03T11:04:16;102442.90;;;10.40;39.45
55517;BME280;41724;51.176;-0.708;2023-03-03T11:06:52;102443.72;;;10.76;39.69
55517;BME280;41724;51.176;-0.708;2023-03-03T11:09:35;102447.16;;;11.19;39.03
55517;BME280;41724;51.176;-0.708;2023-03-03T11:12:17;102445.26;;;10.74;38.22
55517;BME280;41724;51.176;-0.708;2023-03-03T11:15:01;102445.22;;;10.96;38.39
55517;BME280;41724;51.176;-0.708;2023-03-03T11:17:46;102446.91;;;10.89;39.50
55517;BME280;41724;51.176;-0.708;2023-03-03T11:20:30;102444.94;;;11.16;40.53
55517;BME280;41724;51.176;-0.708;2023-03-03T11:23:14;102446.22;;;11.05;39.76
55517;BME280;41724;51.176;-0.708;2023-03-03T11:25:51;102445.22;;;11.17;39.10
55517;BME280;41724;51.176;-0.708;2023-03-03T11:28:31;102448.43;;;11.14;39.95
55517;BME280;41724;51.176;-0.708;2023-03-03T11:31:15;102444.78;;;11.23;38.95
55517;BME280;41724;51.176;-0.708;2023-03-03T11:33:55;102444.46;;;11.15;38.67
55517;BME280;41724;51.176;-0.708;2023-03-03T11:36:28;102442.44;;;10.91;38.63
55517;BME280;41724;51.176;-0.708;2023-03-03T11:38:59;102443.24;;;11.40;38.50
55517;BME280;41724;51.176;-0.708;2023-03-03T11:41:31;102442.60;;;11.59;38.24
55517;BME280;41724;51.176;-0.708;2023-03-03T11:44:10;102442.47;;;11.23;37.94
55517;BME280;41724;51.176;-0.708;2023-03-03T11:46:46;102444.35;;;11.51;37.86
55517;BME280;41724;51.176;-0.708;2023-03-03T11:49:19;102442.62;;;11.56;37.69
55517;BME280;41724;51.176;-0.708;2023-03-03T11:52:04;102443.76;;;11.67;37.52
55517;BME280;41724;51.176;-0.708;2023-03-03T11:54:45;102444.55;;;11.46;38.10
55517;BME280;41724;51.176;-0.708;2023-03-03T11:57:24;102443.05;;;10.54;38.40
55517;BME280;41724;51.176;-0.708;2023-03-03T12:00:00;102443.60;;;11.10;38.51
55517;BME280;41724;51.176;-0.708;2023-03-03T12:02:43;102440.62;;;10.87;39.67
55517;BME280;41724;51.176;-0.708;2023-03-03T12:05:21;102438.91;;;10.72;39.23
55517;BME280;41724;51.176;-0.708;2023-03-03T12:07:57;102436.72;;;10.74;39.41
55517;BME280;41724;51.176;-0.708;2023-03-03T12:10:32;102437.02;;;10.76;39.45
55517;BME280;41724;51.176;-0.708;2023-03-03T12:13:10;102429.89;;;11.01;39.90
55517;BME280;41724;51.176;-0.708;2023-03-03T12:15:47;102425.08;;;11.44;38.66
55517;BME280;41724;51.176;-0.708;2023-03-03T12:18:34;102423.34;;;12.13;38.63
55517;BME280;41724;51.176;-0.708;2023-03-03T12:21:19;102422.33;;;11.56;38.49
55517;BME280;41724;51.176;-0.708;2023-03-03T12:24:05;102421.94;;;11.85;37.68
55517;BME280;41724;51.176;-0.708;2023-03-03T12:26:46;102423.28;;;11.42;36.85
55517;BME280;41724;51.176;-0.708;2023-03-03T12:29:25;102426.64;;;10.88;37.93
55517;BME280;41724;51.176;-0.708;2023-03-03T12:32:02;102424.15;;;11.13;38.00
55517;BME280;41724;51.176;-0.708;2023-03-03T12:34:39;102422.61;;;10.21;38.39
55517;BME280;41724;51.176;-0.708;2023-03-03T12:37:18;102422.38;;;10.44;39.23
55517;BME280;41724;51.176;-0.708;2023-03-03T12:40:01;102420.11;;;10.99;38.59
55517;BME280;41724;51.176;-0.708;2023-03-03T12:42:38;102423.08;;;11.31;38.25
55517;BME280;41724;51.176;-0.708;2023-03-03T12:45:22;102418.93;;;10.94;39.28
55517;BME280;41724;51.176;-0.708;2023-03-03T12:47:59;102418.02;;;10.80;38.73
55517;BME280;41724;51.176;-0.708;2023-03-03T12:50:38;102420.93;;;11.14;38.68
55517;BME280;41724;51.176;-0.708;2023-03-03T12:53:15;102417.39;;;11.04;38.14
55517;BME280;41724;51.176;-0.708;2023-03-03T12:55:54;102417.20;;;11.26;38.12
55517;BME280;41724;51.176;-0.708;2023-03-03T12:58:38;102416.66;;;11.52;38.51
55517;BME280;41724;51.176;-0.708;2023-03-03T13:01:21;102415.06;;;11.24;38.72
55517;BME280;41724;51.176;-0.708;2023-03-03T13:03:58;102420.53;;;10.27;39.34
55517;BME280;41724;51.176;-0.708;2023-03-03T13:06:36;102418.93;;;11.00;38.54
55517;BME280;41724;51.176;-0.708;2023-03-03T13:09:18;102410.08;;;10.69;38.30
55517;BME280;41724;51.176;-0.708;2023-03-03T13:11:59;102417.38;;;10.88;39.46
55517;BME280;41724;51.176;-0.708;2023-03-03T13:14:36;102413.24;;;10.60;39.48